sensor_id;sensor_type;location;lat;lon;timestamp;P1;durP1;ratioP1;P2;durP2;ratioP2
84121;SDS011;74217;51.106;17.084;2024-03-17T00:02:34;6.60;;;3.78;;
84121;SDS011;74217;51.106;17.084;2024-03-17T00:05:19;5.80;;;4.03;;
84121;SDS011;74217;51.106;17.084;2024-03-17T00:08:04;8.88;;;7.78;;
84121;SDS011;74217;51.106;17.084;2024-03-17T00:10:50;6.85;;;4.55;;
84121;SDS011;74217;51.106;17.084;2024-03-17T00:13:35;9.35;;;4.63;;
84121;SDS011;74217;51.106;17.084;2024-03-17T00:16:21;11.00;;;5.55;;
84121;SDS011;74217;51.106;17.084;2024-03-17T00:19:05;6.53;;;5.43;;
84121;SDS011;74217;51.106;17.084;2024-03-17T00:21:50;8.38;;;5.82;;
84121;SDS011;74217;51.106;17.084;2024-03-17T00:24:35;8.52;;;5.68;;
84121;SDS011;74217;51.106;17.084;2024-03-17T00:27:20;9.43;;;4.25;;
84121;SDS011;74217;51.106;17.084;2024-03-17T00:30:04;5.07;;;4.53;;
84121;SDS011;74217;51.106;17.084;2024-03-17T00:32:54;9.23;;;4.15;;
84121;SDS011;74217;51.106;17.084;2024-03-17T00:35:40;9.48;;;4.68;;
84121;SDS011;74217;51.106;17.084;2024-03-17T00:38:25;11.52;;;5.28;;
84121;SDS011;74217;51.106;17.084;2024-03-17T00:41:09;6.82;;;6.13;;
84121;SDS011;74217;51.106;17.084;2024-03-17T00:43:54;6.70;;;4.72;;
84121;SDS011;74217;51.106;17.084;2024-03-17T00:46:39;6.30;;;3.92;;
84121;SDS011;74217;51.106;17.084;2024-03-17T00:49:26;6.65;;;5.75;;
84121;SDS011;74217;51.106;17.084;2024-03-17T00:52:11;7.00;;;4.30;;
84121;SDS011;74217;51.106;17.084;2024-03-17T00:54:56;5.70;;;5.13;;
84121;SDS011;74217;51.106;17.084;2024-03-17T00:57:41;9.50;;;6.03;;
84121;SDS011;74217;51.106;17.084;2024-03-17T01:00:26;8.20;;;5.78;;
84121;SDS011;74217;51.106;17.084;2024-03-17T01:03:11;9.60;;;5.57;;
84121;SDS011;74217;51.106;17.084;2024-03-17T01:05:56;6.97;;;5.03;;
84121;SDS011;74217;51.106;17.084;2024-03-17T01:08:41;9.60;;;5.80;;
84121;SDS011;74217;51.106;17.084;2024-03-17T01:11:26;6.93;;;6.25;;
84121;SDS011;74217;51.106;17.084;2024-03-17T01:14:11;6.22;;;5.05;;
84121;SDS011;74217;51.106;17.084;2024-03-17T01:16:58;6.97;;;4.22;;
84121;SDS011;74217;51.106;17.084;2024-03-17T01:19:43;8.23;;;5.97;;
84121;SDS011;74217;51.106;17.084;2024-03-17T01:22:27;5.63;;;5.10;;
84121;SDS011;74217;51.106;17.084;2024-03-17T01:25:13;7.15;;;5.20;;
84121;SDS011;74217;51.106;17.084;2024-03-17T01:27:59;5.65;;;4.25;;
84121;SDS011;74217;51.106;17.084;2024-03-17T01:30:43;8.82;;;5.72;;
84121;SDS011;74217;51.106;17.084;2024-03-17T01:33:29;10.38;;;6.80;;
84121;SDS011;74217;51.106;17.084;2024-03-17T01:36:14;6.70;;;5.93;;
84121;SDS011;74217;51.106;17.084;2024-03-17T01:38:59;10.35;;;6.63;;
84121;SDS011;74217;51.106;17.084;2024-03-17T01:41:44;10.43;;;6.40;;
84121;SDS011;74217;51.106;17.084;2024-03-17T01:44:29;12.18;;;6.75;;
84121;SDS011;74217;51.106;17.084;2024-03-17T01:47:15;9.32;;;4.93;;
84121;SDS011;74217;51.106;17.084;2024-03-17T01:50:00;9.77;;;5.32;;
84121;SDS011;74217;51.106;17.084;2024-03-17T01:52:46;6.93;;;5.50;;
84121;SDS011;74217;51.106;17.084;2024-03-17T01:55:36;16.27;;;12.70;;
84121;SDS011;74217;51.106;17.084;2024-03-17T01:58:21;9.35;;;5.53;;
84121;SDS011;74217;51.106;17.084;2024-03-17T02:01:10;7.40;;;5.43;;
84121;SDS011;74217;51.106;17.084;2024-03-17T02:03:58;9.00;;;6.68;;
84121;SDS011;74217;51.106;17.084;2024-03-17T02:06:44;7.72;;;6.50;;
84121;SDS011;74217;51.106;17.084;2024-03-17T02:09:29;8.93;;;5.13;;
84121;SDS011;74217;51.106;17.084;2024-03-17T02:12:13;6.95;;;5.40;;
84121;SDS011;74217;51.106;17.084;2024-03-17T02:14:58;10.85;;;5.00;;
84121;SDS011;74217;51.106;17.084;2024-03-17T02:17:44;6.55;;;3.75;;
84121;SDS011;74217;51.106;17.084;2024-03-17T02:20:29;5.25;;;4.60;;
84121;SDS011;74217;51.106;17.084;2024-03-17T02:23:33;6.68;;;5.00;;
84121;SDS011;74217;51.106;17.084;2024-03-17T02:26:18;11.25;;;5.70;;
84121;SDS011;74217;51.106;17.084;2024-03-17T02:29:03;9.45;;;5.25;;
84121;SDS011;74217;51.106;17.084;2024-03-17T02:31:48;9.07;;;5.30;;
84121;SDS011;74217;51.106;17.084;2024-03-17T02:34:37;10.77;;;6.30;;
84121;SDS011;74217;51.106;17.084;2024-03-17T02:37:25;7.55;;;6.18;;
84121;SDS011;74217;51.106;17.084;2024-03-17T02:40:11;6.55;;;5.28;;
84121;SDS011;74217;51.106;17.084;2024-03-17T02:42:56;8.07;;;7.25;;
84121;SDS011;74217;51.106;17.084;2024-03-17T02:45:42;11.43;;;6.55;;
84121;SDS011;74217;51.106;17.084;2024-03-17T02:48:27;8.77;;;5.05;;
84121;SDS011;74217;51.106;17.084;2024-03-17T02:51:13;6.60;;;3.38;;
84121;SDS011;74217;51.106;17.084;2024-03-17T02:53:59;5.88;;;4.35;;
84121;SDS011;74217;51.106;17.084;2024-03-17T02:56:44;9.68;;;5.65;;
84121;SDS011;74217;51.106;17.084;2024-03-17T02:59:29;9.52;;;6.05;;
84121;SDS011;74217;51.106;17.084;2024-03-17T03:02:15;9.65;;;5.75;;
84121;SDS011;74217;51.106;17.084;2024-03-17T03:05:00;9.52;;;5.88;;
84121;SDS011;74217;51.106;17.084;2024-03-17T03:07:45;7.82;;;5.32;;
84121;SDS011;74217;51.106;17.084;2024-03-17T03:10:29;9.18;;;7.35;;
84121;SDS011;74217;51.106;17.084;2024-03-17T03:13:14;7.45;;;5.45;;
84121;SDS011;74217;51.106;17.084;2024-03-17T03:15:59;11.30;;;6.13;;
84121;SDS011;74217;51.106;17.084;2024-03-17T03:18:44;7.18;;;4.22;;
84121;SDS011;74217;51.106;17.084;2024-03-17T03:21:29;5.25;;;4.78;;
84121;SDS011;74217;51.106;17.084;2024-03-17T03:24:14;8.45;;;4.20;;
84121;SDS011;74217;51.106;17.084;2024-03-17T03:26:59;8.73;;;6.32;;
84121;SDS011;74217;51.106;17.084;2024-03-17T03:29:44;5.75;;;5.18;;
84121;SDS011;74217;51.106;17.084;2024-03-17T03:32:29;9.98;;;4.93;;
84121;SDS011;74217;51.106;17.084;2024-03-17T03:35:14;13.00;;;4.10;;
84121;SDS011;74217;51.106;17.084;2024-03-17T03:37:59;11.77;;;4.97;;
84121;SDS011;74217;51.106;17.084;2024-03-17T03:40:44;8.80;;;4.88;;
84121;SDS011;74217;51.106;17.084;2024-03-17T03:43:29;7.35;;;4.40;;
84121;SDS011;74217;51.106;17.084;2024-03-17T03:49:00;10.07;;;6.13;;
84121;SDS011;74217;51.106;17.084;2024-03-17T03:51:46;5.85;;;4.90;;
84121;SDS011;74217;51.106;17.084;2024-03-17T03:54:30;7.88;;;5.50;;
84121;SDS011;74217;51.106;17.084;2024-03-17T03:57:15;9.35;;;5.57;;
84121;SDS011;74217;51.106;17.084;2024-03-17T04:00:00;9.75;;;5.30;;
84121;SDS011;74217;51.106;17.084;2024-03-17T04:02:45;10.70;;;5.40;;
84121;SDS011;74217;51.106;17.084;2024-03-17T04:05:30;8.13;;;5.28;;
84121;SDS011;74217;51.106;17.084;2024-03-17T04:08:15;8.40;;;6.78;;
84121;SDS011;74217;51.106;17.084;2024-03-17T04:11:00;7.82;;;5.82;;
84121;SDS011;74217;51.106;17.084;2024-03-17T04:13:48;7.75;;;5.15;;
84121;SDS011;74217;51.106;17.084;2024-03-17T04:16:33;7.32;;;4.80;;
84121;SDS011;74217;51.106;17.084;2024-03-17T04:19:18;10.38;;;5.72;;
84121;SDS011;74217;51.106;17.084;2024-03-17T04:22:03;8.52;;;7.63;;
84121;SDS011;74217;51.106;17.084;2024-03-17T04:24:48;8.88;;;5.57;;
84121;SDS011;74217;51.106;17.084;2024-03-17T04:27:40;7.65;;;5.95;;
84121;SDS011;74217;51.106;17.084;2024-03-17T04:30:25;8.80;;;5.38;;
84121;SDS011;74217;51.106;17.084;2024-03-17T04:33:11;6.70;;;4.68;;
84121;SDS011;74217;51.106;17.084;2024-03-17T04:35:56;7.57;;;6.88;;
84121;SDS011;74217;51.106;17.084;2024-03-17T04:38:41;8.48;;;6.20;;
84121;SDS011;74217;51.106;17.084;2024-03-17T04:41:26;7.53;;;6.35;;
84121;SDS011;74217;51.106;17.084;2024-03-17T04:44:12;9.30;;;3.80;;
84121;SDS011;74217;51.106;17.084;2024-03-17T04:46:57;7.65;;;4.38;;
84121;SDS011;74217;51.106;17.084;2024-03-17T04:49:43;7.28;;;5.13;;
84121;SDS011;74217;51.106;17.084;2024-03-17T04:55:13;4.65;;;4.25;;
84121;SDS011;74217;51.106;17.084;2024-03-17T04:57:58;8.55;;;4.25;;
84121;SDS011;74217;51.106;17.084;2024-03-17T05:00:43;8.68;;;5.38;;
84121;SDS011;74217;51.106;17.084;2024-03-17T05:03:28;8.48;;;5.10;;
84121;SDS011;74217;51.106;17.084;2024-03-17T05:06:13;9.43;;;5.57;;
84121;SDS011;74217;51.106;17.084;2024-03-17T05:08:58;10.90;;;5.70;;
84121;SDS011;74217;51.106;17.084;2024-03-17T05:11:43;9.35;;;6.90;;
84121;SDS011;74217;51.106;17.084;2024-03-17T05:14:28;7.07;;;6.53;;
84121;SDS011;74217;51.106;17.084;2024-03-17T05:17:13;7.88;;;7.07;;
84121;SDS011;74217;51.106;17.084;2024-03-17T05:19:59;11.68;;;5.90;;
84121;SDS011;74217;51.106;17.084;2024-03-17T05:22:43;6.40;;;3.92;;
84121;SDS011;74217;51.106;17.084;2024-03-17T05:25:31;8.32;;;5.32;;
84121;SDS011;74217;51.106;17.084;2024-03-17T05:28:20;7.00;;;4.93;;
84121;SDS011;74217;51.106;17.084;2024-03-17T05:31:05;8.75;;;7.43;;
84121;SDS011;74217;51.106;17.084;2024-03-17T05:33:53;6.00;;;5.30;;
84121;SDS011;74217;51.106;17.084;2024-03-17T05:36:37;7.55;;;6.00;;
84121;SDS011;74217;51.106;17.084;2024-03-17T05:39:22;7.93;;;6.45;;
84121;SDS011;74217;51.106;17.084;2024-03-17T05:42:07;11.82;;;7.05;;
84121;SDS011;74217;51.106;17.084;2024-03-17T05:44:52;4.80;;;4.20;;
84121;SDS011;74217;51.106;17.084;2024-03-17T05:47:38;7.53;;;5.53;;
84121;SDS011;74217;51.106;17.084;2024-03-17T05:50:23;8.85;;;6.53;;
84121;SDS011;74217;51.106;17.084;2024-03-17T05:53:08;8.13;;;5.45;;
84121;SDS011;74217;51.106;17.084;2024-03-17T05:55:53;7.10;;;5.38;;
84121;SDS011;74217;51.106;17.084;2024-03-17T05:58:39;8.13;;;7.20;;
84121;SDS011;74217;51.106;17.084;2024-03-17T06:01:24;13.00;;;5.93;;
84121;SDS011;74217;51.106;17.084;2024-03-17T06:04:09;11.45;;;6.50;;
84121;SDS011;74217;51.106;17.084;2024-03-17T06:06:54;10.10;;;7.65;;
84121;SDS011;74217;51.106;17.084;2024-03-17T06:09:39;9.65;;;6.20;;
84121;SDS011;74217;51.106;17.084;2024-03-17T06:12:24;9.70;;;6.68;;
84121;SDS011;74217;51.106;17.084;2024-03-17T06:15:09;9.95;;;6.80;;
84121;SDS011;74217;51.106;17.084;2024-03-17T06:17:55;8.77;;;5.93;;
84121;SDS011;74217;51.106;17.084;2024-03-17T06:20:41;6.72;;;6.05;;
84121;SDS011;74217;51.106;17.084;2024-03-17T06:23:27;8.32;;;7.57;;
84121;SDS011;74217;51.106;17.084;2024-03-17T06:26:12;8.70;;;4.40;;
84121;SDS011;74217;51.106;17.084;2024-03-17T06:28:57;5.70;;;4.60;;
84121;SDS011;74217;51.106;17.084;2024-03-17T06:31:42;6.65;;;4.00;;
84121;SDS011;74217;51.106;17.084;2024-03-17T06:34:27;6.57;;;4.47;;
84121;SDS011;74217;51.106;17.084;2024-03-17T06:37:12;6.68;;;4.82;;
84121;SDS011;74217;51.106;17.084;2024-03-17T06:39:57;10.57;;;4.47;;
84121;SDS011;74217;51.106;17.084;2024-03-17T06:42:42;8.48;;;4.03;;
84121;SDS011;74217;51.106;17.084;2024-03-17T06:45:27;8.75;;;7.35;;
84121;SDS011;74217;51.106;17.084;2024-03-17T06:48:12;5.72;;;4.65;;
84121;SDS011;74217;51.106;17.084;2024-03-17T06:50:57;7.88;;;3.28;;
84121;SDS011;74217;51.106;17.084;2024-03-17T06:53:42;11.85;;;5.28;;
84121;SDS011;74217;51.106;17.084;2024-03-17T06:56:26;13.38;;;4.30;;
84121;SDS011;74217;51.106;17.084;2024-03-17T06:59:11;9.45;;;3.63;;
84121;SDS011;74217;51.106;17.084;2024-03-17T07:01:56;8.60;;;3.75;;
84121;SDS011;74217;51.106;17.084;2024-03-17T07:04:41;10.32;;;4.20;;
84121;SDS011;74217;51.106;17.084;2024-03-17T07:07:29;5.25;;;3.80;;
84121;SDS011;74217;51.106;17.084;2024-03-17T07:10:14;9.95;;;4.15;;
84121;SDS011;74217;51.106;17.084;2024-03-17T07:12:59;7.28;;;4.20;;
84121;SDS011;74217;51.106;17.084;2024-03-17T07:15:47;7.47;;;4.78;;
84121;SDS011;74217;51.106;17.084;2024-03-17T07:18:33;9.93;;;4.82;;
84121;SDS011;74217;51.106;17.084;2024-03-17T07:24:03;12.90;;;5.05;;
84121;SDS011;74217;51.106;17.084;2024-03-17T07:26:49;10.45;;;4.00;;
84121;SDS011;74217;51.106;17.084;2024-03-17T07:29:34;6.72;;;3.28;;
84121;SDS011;74217;51.106;17.084;2024-03-17T07:32:19;10.13;;;3.15;;
84121;SDS011;74217;51.106;17.084;2024-03-17T07:35:04;9.20;;;3.95;;
84121;SDS011;74217;51.106;17.084;2024-03-17T07:37:49;6.75;;;3.53;;
84121;SDS011;74217;51.106;17.084;2024-03-17T07:40:34;7.75;;;3.97;;
84121;SDS011;74217;51.106;17.084;2024-03-17T07:43:20;7.60;;;4.32;;
84121;SDS011;74217;51.106;17.084;2024-03-17T07:46:05;8.68;;;3.97;;
84121;SDS011;74217;51.106;17.084;2024-03-17T07:48:57;12.32;;;5.93;;
84121;SDS011;74217;51.106;17.084;2024-03-17T07:51:42;8.13;;;4.78;;
84121;SDS011;74217;51.106;17.084;2024-03-17T07:54:28;12.43;;;5.22;;
84121;SDS011;74217;51.106;17.084;2024-03-17T07:57:13;6.25;;;3.35;;
84121;SDS011;74217;51.106;17.084;2024-03-17T07:59:59;13.15;;;3.42;;
84121;SDS011;74217;51.106;17.084;2024-03-17T08:02:47;15.43;;;5.13;;
84121;SDS011;74217;51.106;17.084;2024-03-17T08:05:32;14.82;;;6.18;;
84121;SDS011;74217;51.106;17.084;2024-03-17T08:08:17;10.18;;;4.25;;
84121;SDS011;74217;51.106;17.084;2024-03-17T08:11:02;7.65;;;5.03;;
84121;SDS011;74217;51.106;17.084;2024-03-17T08:13:48;12.90;;;5.50;;
84121;SDS011;74217;51.106;17.084;2024-03-17T08:16:33;6.25;;;3.95;;
84121;SDS011;74217;51.106;17.084;2024-03-17T08:19:17;8.40;;;3.80;;
84121;SDS011;74217;51.106;17.084;2024-03-17T08:22:02;6.35;;;5.07;;
84121;SDS011;74217;51.106;17.084;2024-03-17T08:24:47;9.57;;;5.03;;
84121;SDS011;74217;51.106;17.084;2024-03-17T08:27:33;6.63;;;3.58;;
84121;SDS011;74217;51.106;17.084;2024-03-17T08:30:17;5.72;;;3.65;;
84121;SDS011;74217;51.106;17.084;2024-03-17T08:33:03;8.50;;;3.75;;
84121;SDS011;74217;51.106;17.084;2024-03-17T08:38:51;7.25;;;3.67;;
84121;SDS011;74217;51.106;17.084;2024-03-17T08:41:37;8.07;;;3.67;;
84121;SDS011;74217;51.106;17.084;2024-03-17T08:44:22;6.15;;;3.67;;
84121;SDS011;74217;51.106;17.084;2024-03-17T08:47:06;9.55;;;3.13;;
84121;SDS011;74217;51.106;17.084;2024-03-17T08:49:50;8.20;;;3.17;;
84121;SDS011;74217;51.106;17.084;2024-03-17T08:52:35;8.00;;;4.45;;
84121;SDS011;74217;51.106;17.084;2024-03-17T08:55:20;15.70;;;5.20;;
84121;SDS011;74217;51.106;17.084;2024-03-17T08:58:04;13.00;;;4.53;;
84121;SDS011;74217;51.106;17.084;2024-03-17T09:00:49;4.05;;;3.55;;
84121;SDS011;74217;51.106;17.084;2024-03-17T09:03:34;9.35;;;3.97;;
84121;SDS011;74217;51.106;17.084;2024-03-17T09:06:20;9.20;;;4.07;;
84121;SDS011;74217;51.106;17.084;2024-03-17T09:09:06;5.28;;;3.28;;
84121;SDS011;74217;51.106;17.084;2024-03-17T09:11:52;8.95;;;3.53;;
84121;SDS011;74217;51.106;17.084;2024-03-17T09:14:36;6.68;;;3.92;;
84121;SDS011;74217;51.106;17.084;2024-03-17T09:17:21;7.85;;;4.20;;
84121;SDS011;74217;51.106;17.084;2024-03-17T09:20:06;6.95;;;3.67;;
84121;SDS011;74217;51.106;17.084;2024-03-17T09:22:55;5.32;;;2.85;;
84121;SDS011;74217;51.106;17.084;2024-03-17T09:25:40;5.20;;;3.63;;
84121;SDS011;74217;51.106;17.084;2024-03-17T09:28:24;9.85;;;3.83;;
84121;SDS011;74217;51.106;17.084;2024-03-17T09:31:09;6.03;;;3.67;;
84121;SDS011;74217;51.106;17.084;2024-03-17T09:33:55;5.82;;;3.45;;
84121;SDS011;74217;51.106;17.084;2024-03-17T09:36:40;6.43;;;3.53;;
84121;SDS011;74217;51.106;17.084;2024-03-17T09:39:24;7.35;;;2.70;;
84121;SDS011;74217;51.106;17.084;2024-03-17T09:42:15;10.27;;;3.35;;
84121;SDS011;74217;51.106;17.084;2024-03-17T09:45:02;8.75;;;4.28;;
84121;SDS011;74217;51.106;17.084;2024-03-17T09:47:47;7.53;;;4.18;;
84121;SDS011;74217;51.106;17.084;2024-03-17T09:50:32;7.28;;;4.78;;
84121;SDS011;74217;51.106;17.084;2024-03-17T09:53:22;5.63;;;4.70;;
84121;SDS011;74217;51.106;17.084;2024-03-17T09:56:10;5.93;;;3.70;;
84121;SDS011;74217;51.106;17.084;2024-03-17T09:58:55;6.20;;;3.47;;
84121;SDS011;74217;51.106;17.084;2024-03-17T10:01:40;5.05;;;3.38;;
84121;SDS011;74217;51.106;17.084;2024-03-17T10:04:31;5.75;;;2.67;;
84121;SDS011;74217;51.106;17.084;2024-03-17T10:07:18;7.78;;;3.10;;
84121;SDS011;74217;51.106;17.084;2024-03-17T10:10:21;12.45;;;4.65;;
84121;SDS011;74217;51.106;17.084;2024-03-17T10:13:06;5.85;;;3.80;;
84121;SDS011;74217;51.106;17.084;2024-03-17T10:15:56;4.80;;;2.30;;
84121;SDS011;74217;51.106;17.084;2024-03-17T10:18:41;8.85;;;2.95;;
84121;SDS011;74217;51.106;17.084;2024-03-17T10:21:26;8.23;;;2.90;;
84121;SDS011;74217;51.106;17.084;2024-03-17T10:24:25;6.90;;;2.60;;
84121;SDS011;74217;51.106;17.084;2024-03-17T10:27:12;4.90;;;3.35;;
84121;SDS011;74217;51.106;17.084;2024-03-17T10:29:57;4.55;;;3.58;;
84121;SDS011;74217;51.106;17.084;2024-03-17T10:32:41;7.60;;;2.97;;
84121;SDS011;74217;51.106;17.084;2024-03-17T10:35:32;5.25;;;3.13;;
84121;SDS011;74217;51.106;17.084;2024-03-17T10:38:18;7.00;;;2.95;;
84121;SDS011;74217;51.106;17.084;2024-03-17T10:41:04;9.15;;;2.53;;
84121;SDS011;74217;51.106;17.084;2024-03-17T10:43:49;5.28;;;3.53;;
84121;SDS011;74217;51.106;17.084;2024-03-17T10:46:34;4.72;;;2.65;;
84121;SDS011;74217;51.106;17.084;2024-03-17T10:49:19;6.78;;;4.63;;
84121;SDS011;74217;51.106;17.084;2024-03-17T10:52:15;7.72;;;2.65;;
84121;SDS011;74217;51.106;17.084;2024-03-17T10:55:07;7.97;;;4.38;;
84121;SDS011;74217;51.106;17.084;2024-03-17T10:57:53;6.05;;;4.15;;
84121;SDS011;74217;51.106;17.084;2024-03-17T11:00:42;4.13;;;3.33;;
84121;SDS011;74217;51.106;17.084;2024-03-17T11:03:29;5.32;;;3.60;;
84121;SDS011;74217;51.106;17.084;2024-03-17T11:06:19;8.30;;;4.07;;
84121;SDS011;74217;51.106;17.084;2024-03-17T11:11:57;12.48;;;3.45;;
84121;SDS011;74217;51.106;17.084;2024-03-17T11:14:45;4.95;;;3.67;;
84121;SDS011;74217;51.106;17.084;2024-03-17T11:17:29;5.13;;;2.53;;
84121;SDS011;74217;51.106;17.084;2024-03-17T11:20:24;5.72;;;2.97;;
84121;SDS011;74217;51.106;17.084;2024-03-17T11:23:09;8.82;;;3.55;;
84121;SDS011;74217;51.106;17.084;2024-03-17T11:26:11;3.72;;;3.25;;
84121;SDS011;74217;51.106;17.084;2024-03-17T11:29:26;5.25;;;3.65;;
84121;SDS011;74217;51.106;17.084;2024-03-17T11:32:25;11.13;;;3.05;;
84121;SDS011;74217;51.106;17.084;2024-03-17T11:35:14;6.30;;;3.60;;
84121;SDS011;74217;51.106;17.084;2024-03-17T11:38:00;7.05;;;2.80;;
84121;SDS011;74217;51.106;17.084;2024-03-17T11:40:45;6.22;;;4.18;;
84121;SDS011;74217;51.106;17.084;2024-03-17T11:43:30;4.47;;;3.58;;
84121;SDS011;74217;51.106;17.084;2024-03-17T11:46:15;6.15;;;2.95;;
84121;SDS011;74217;51.106;17.084;2024-03-17T11:49:03;5.43;;;4.93;;
84121;SDS011;74217;51.106;17.084;2024-03-17T11:51:48;4.03;;;2.63;;
84121;SDS011;74217;51.106;17.084;2024-03-17T11:54:36;8.20;;;2.45;;
84121;SDS011;74217;51.106;17.084;2024-03-17T11:57:24;6.40;;;3.10;;
84121;SDS011;74217;51.106;17.084;2024-03-17T12:00:20;5.20;;;2.70;;
84121;SDS011;74217;51.106;17.084;2024-03-17T12:03:09;5.90;;;3.00;;
84121;SDS011;74217;51.106;17.084;2024-03-17T12:05:56;6.40;;;2.42;;
84121;SDS011;74217;51.106;17.084;2024-03-17T12:08:40;6.32;;;3.85;;
84121;SDS011;74217;51.106;17.084;2024-03-17T12:11:25;7.15;;;2.95;;
84121;SDS011;74217;51.106;17.084;2024-03-17T12:14:17;6.35;;;3.20;;
84121;SDS011;74217;51.106;17.084;2024-03-17T12:17:07;7.55;;;3.83;;
84121;SDS011;74217;51.106;17.084;2024-03-17T12:19:53;7.80;;;3.70;;
84121;SDS011;74217;51.106;17.084;2024-03-17T12:22:40;5.43;;;3.15;;
84121;SDS011;74217;51.106;17.084;2024-03-17T12:25:26;4.20;;;3.38;;
84121;SDS011;74217;51.106;17.084;2024-03-17T12:28:15;3.97;;;3.28;;
84121;SDS011;74217;51.106;17.084;2024-03-17T12:31:01;6.00;;;3.75;;
84121;SDS011;74217;51.106;17.084;2024-03-17T12:33:46;6.60;;;2.53;;
84121;SDS011;74217;51.106;17.084;2024-03-17T12:36:32;4.15;;;2.50;;
84121;SDS011;74217;51.106;17.084;2024-03-17T12:39:20;3.63;;;3.25;;
84121;SDS011;74217;51.106;17.084;2024-03-17T12:42:09;7.97;;;4.63;;
84121;SDS011;74217;51.106;17.084;2024-03-17T12:44:56;5.70;;;3.33;;
84121;SDS011;74217;51.106;17.084;2024-03-17T12:47:41;3.85;;;2.40;;
84121;SDS011;74217;51.106;17.084;2024-03-17T12:50:32;7.53;;;3.33;;
84121;SDS011;74217;51.106;17.084;2024-03-17T12:53:18;8.43;;;5.82;;
84121;SDS011;74217;51.106;17.084;2024-03-17T12:56:07;8.40;;;4.47;;
84121;SDS011;74217;51.106;17.084;2024-03-17T12:59:11;9.00;;;3.03;;
84121;SDS011;74217;51.106;17.084;2024-03-17T13:02:17;5.68;;;2.80;;
84121;SDS011;74217;51.106;17.084;2024-03-17T13:05:05;5.60;;;3.63;;
84121;SDS011;74217;51.106;17.084;2024-03-17T13:08:03;7.28;;;2.88;;
84121;SDS011;74217;51.106;17.084;2024-03-17T13:10:50;5.95;;;3.38;;
84121;SDS011;74217;51.106;17.084;2024-03-17T13:13:35;7.70;;;4.13;;
84121;SDS011;74217;51.106;17.084;2024-03-17T13:16:20;5.85;;;2.55;;
84121;SDS011;74217;51.106;17.084;2024-03-17T13:19:04;4.25;;;2.38;;
84121;SDS011;74217;51.106;17.084;2024-03-17T13:21:51;7.38;;;3.03;;
84121;SDS011;74217;51.106;17.084;2024-03-17T13:24:36;5.63;;;2.83;;
84121;SDS011;74217;51.106;17.084;2024-03-17T13:27:20;6.53;;;2.13;;
84121;SDS011;74217;51.106;17.084;2024-03-17T13:30:05;6.95;;;3.00;;
84121;SDS011;74217;51.106;17.084;2024-03-17T13:32:50;3.90;;;2.58;;
84121;SDS011;74217;51.106;17.084;2024-03-17T13:35:40;4.85;;;3.13;;
84121;SDS011;74217;51.106;17.084;2024-03-17T13:38:25;3.95;;;2.45;;
84121;SDS011;74217;51.106;17.084;2024-03-17T13:41:09;7.65;;;4.68;;
84121;SDS011;74217;51.106;17.084;2024-03-17T13:43:54;7.47;;;3.25;;
84121;SDS011;74217;51.106;17.084;2024-03-17T13:46:41;4.00;;;2.95;;
84121;SDS011;74217;51.106;17.084;2024-03-17T13:49:26;4.25;;;2.45;;
84121;SDS011;74217;51.106;17.084;2024-03-17T13:52:11;3.45;;;3.15;;
84121;SDS011;74217;51.106;17.084;2024-03-17T13:54:55;5.38;;;2.55;;
84121;SDS011;74217;51.106;17.084;2024-03-17T13:57:40;5.50;;;3.72;;
84121;SDS011;74217;51.106;17.084;2024-03-17T14:00:28;3.78;;;2.63;;
84121;SDS011;74217;51.106;17.084;2024-03-17T14:03:15;5.70;;;3.08;;
84121;SDS011;74217;51.106;17.084;2024-03-17T14:06:00;4.35;;;2.53;;
84121;SDS011;74217;51.106;17.084;2024-03-17T14:08:44;5.60;;;2.33;;
84121;SDS011;74217;51.106;17.084;2024-03-17T14:11:29;3.70;;;3.40;;
84121;SDS011;74217;51.106;17.084;2024-03-17T14:14:14;5.15;;;2.90;;
84121;SDS011;74217;51.106;17.084;2024-03-17T14:16:59;5.22;;;2.85;;
84121;SDS011;74217;51.106;17.084;2024-03-17T14:19:44;6.15;;;3.75;;
84121;SDS011;74217;51.106;17.084;2024-03-17T14:22:28;8.75;;;2.45;;
84121;SDS011;74217;51.106;17.084;2024-03-17T14:25:16;3.13;;;2.00;;
84121;SDS011;74217;51.106;17.084;2024-03-17T14:28:02;4.72;;;3.00;;
84121;SDS011;74217;51.106;17.084;2024-03-17T14:30:47;6.88;;;3.33;;
84121;SDS011;74217;51.106;17.084;2024-03-17T14:33:32;4.70;;;2.78;;
84121;SDS011;74217;51.106;17.084;2024-03-17T14:36:16;6.47;;;2.80;;
84121;SDS011;74217;51.106;17.084;2024-03-17T14:39:02;6.35;;;3.15;;
84121;SDS011;74217;51.106;17.084;2024-03-17T14:41:47;9.20;;;3.55;;
84121;SDS011;74217;51.106;17.084;2024-03-17T14:44:33;6.57;;;2.65;;
84121;SDS011;74217;51.106;17.084;2024-03-17T14:47:19;8.20;;;3.25;;
84121;SDS011;74217;51.106;17.084;2024-03-17T14:50:04;5.53;;;2.60;;
84121;SDS011;74217;51.106;17.084;2024-03-17T14:52:49;5.90;;;3.13;;
84121;SDS011;74217;51.106;17.084;2024-03-17T14:55:33;7.10;;;3.97;;
84121;SDS011;74217;51.106;17.084;2024-03-17T14:58:19;4.63;;;3.03;;
84121;SDS011;74217;51.106;17.084;2024-03-17T15:01:05;4.85;;;3.05;;
84121;SDS011;74217;51.106;17.084;2024-03-17T15:03:50;6.47;;;3.92;;
84121;SDS011;74217;51.106;17.084;2024-03-17T15:06:35;3.95;;;2.65;;
84121;SDS011;74217;51.106;17.084;2024-03-17T15:09:20;6.45;;;5.07;;
84121;SDS011;74217;51.106;17.084;2024-03-17T15:12:05;3.13;;;2.70;;
84121;SDS011;74217;51.106;17.084;2024-03-17T15:14:51;3.95;;;2.72;;
84121;SDS011;74217;51.106;17.084;2024-03-17T15:17:36;4.85;;;2.20;;
84121;SDS011;74217;51.106;17.084;2024-03-17T15:20:21;4.45;;;2.08;;
84121;SDS011;74217;51.106;17.084;2024-03-17T15:23:08;5.47;;;2.78;;
84121;SDS011;74217;51.106;17.084;2024-03-17T15:25:52;4.47;;;3.30;;
84121;SDS011;74217;51.106;17.084;2024-03-17T15:28:39;8.13;;;2.90;;
84121;SDS011;74217;51.106;17.084;2024-03-17T15:31:25;7.43;;;3.60;;
84121;SDS011;74217;51.106;17.084;2024-03-17T15:34:10;3.58;;;3.17;;
84121;SDS011;74217;51.106;17.084;2024-03-17T15:36:55;4.43;;;2.88;;
84121;SDS011;74217;51.106;17.084;2024-03-17T15:39:40;3.28;;;2.95;;
84121;SDS011;74217;51.106;17.084;2024-03-17T15:42:25;4.00;;;2.65;;
84121;SDS011;74217;51.106;17.084;2024-03-17T15:45:09;3.53;;;1.90;;
84121;SDS011;74217;51.106;17.084;2024-03-17T15:47:54;4.10;;;3.28;;
84121;SDS011;74217;51.106;17.084;2024-03-17T15:50:41;3.97;;;2.60;;
84121;SDS011;74217;51.106;17.084;2024-03-17T15:53:27;4.70;;;3.75;;
84121;SDS011;74217;51.106;17.084;2024-03-17T15:56:12;3.30;;;2.60;;
84121;SDS011;74217;51.106;17.084;2024-03-17T15:58:57;7.47;;;4.38;;
84121;SDS011;74217;51.106;17.084;2024-03-17T16:01:41;6.32;;;4.28;;
84121;SDS011;74217;51.106;17.084;2024-03-17T16:04:26;4.32;;;2.72;;
84121;SDS011;74217;51.106;17.084;2024-03-17T16:07:11;9.10;;;3.35;;
84121;SDS011;74217;51.106;17.084;2024-03-17T16:09:56;7.10;;;4.18;;
84121;SDS011;74217;51.106;17.084;2024-03-17T16:12:41;8.05;;;4.15;;
84121;SDS011;74217;51.106;17.084;2024-03-17T16:15:26;5.50;;;2.72;;
84121;SDS011;74217;51.106;17.084;2024-03-17T16:18:13;8.48;;;7.82;;
84121;SDS011;74217;51.106;17.084;2024-03-17T16:21:00;4.07;;;3.40;;
84121;SDS011;74217;51.106;17.084;2024-03-17T16:24:08;6.35;;;2.97;;
84121;SDS011;74217;51.106;17.084;2024-03-17T16:29:39;6.95;;;3.63;;
84121;SDS011;74217;51.106;17.084;2024-03-17T16:32:27;5.95;;;3.25;;
84121;SDS011;74217;51.106;17.084;2024-03-17T16:35:12;5.70;;;3.55;;
84121;SDS011;74217;51.106;17.084;2024-03-17T16:37:57;8.70;;;3.40;;
84121;SDS011;74217;51.106;17.084;2024-03-17T16:40:42;5.18;;;3.20;;
84121;SDS011;74217;51.106;17.084;2024-03-17T16:49:35;7.47;;;4.28;;